Time;durP1;ratioP1;P1;durP2;ratioP2;P2;SDS_P1;SDS_P2;PMS_P1;PMS_P2;Temp;Humidity;BMP_temperature;BMP_pressure;BME280_temperature;BME280_humidity;BME280_pressure;Samples;Min_cycle;Max_cycle;Signal;HPM_P1;HPM_P2
2022/12/06 00:01:14;;;;;;;9.05;5.82;;;;;;;;;;5101745;28;20062;-76
2022/12/06 00:03:40;;;;;;;7.32;4.60;;;;;;;;;;5103614;28;20043;-76
2022/12/06 00:06:08;;;;;;;6.70;3.00;;;;;;;;;;5088619;28;20479;-76
2022/12/06 00:08:34;;;;;;;4.78;2.28;;;;;;;;;;5085657;28;20040;-76
2022/12/06 00:11:08;;;;;;;7.75;2.85;;;;;;;;;;5099955;28;20046;-76
2022/12/06 00:13:34;;;;;;;5.00;2.90;;;;;;;;;;5103384;28;20503;-76
2022/12/06 00:16:01;;;;;;;5.80;3.40;;;;;;;;;;5082935;28;20609;-76
2022/12/06 00:18:27;;;;;;;9.93;3.40;;;;;;;;;;5104109;28;20114;-76
2022/12/06 00:20:53;;;;;;;10.20;3.10;;;;;;;;;;5088963;28;20044;-76
2022/12/06 00:23:22;;;;;;;6.47;3.42;;;;;;;;;;5088275;28;20044;-76
2022/12/06 00:25:48;;;;;;;10.35;3.33;;;;;;;;;;5100004;28;20039;-76
2022/12/06 00:28:14;;;;;;;4.57;2.72;;;;;;;;;;5082616;28;20047;-76
2022/12/06 00:30:40;;;;;;;5.82;3.00;;;;;;;;;;5102059;28;20036;-76
2022/12/06 00:33:06;;;;;;;6.72;2.72;;;;;;;;;;5081017;28;20052;-76
2022/12/06 00:35:32;;;;;;;6.47;2.45;;;;;;;;;;5081709;28;20047;-76
2022/12/06 00:37:58;;;;;;;4.40;2.53;;;;;;;;;;5096131;28;20122;-76
2022/12/06 00:40:24;;;;;;;5.75;2.28;;;;;;;;;;5094928;28;20051;-76
2022/12/06 00:42:50;;;;;;;4.20;2.78;;;;;;;;;;5099545;28;20179;-76
2022/12/06 00:45:17;;;;;;;5.68;3.55;;;;;;;;;;5077216;28;20051;-77
2022/12/06 00:47:43;;;;;;;6.78;3.30;;;;;;;;;;5102462;28;20039;-76
2022/12/06 00:50:09;;;;;;;5.38;2.88;;;;;;;;;;5075502;28;20498;-76
2022/12/06 00:52:35;;;;;;;5.88;3.25;;;;;;;;;;5101385;28;20044;-76
2022/12/06 00:55:01;;;;;;;4.47;2.65;;;;;;;;;;5079202;28;20043;-76
2022/12/06 00:57:27;;;;;;;5.75;2.83;;;;;;;;;;5095094;28;20514;-76
2022/12/06 00:59:53;;;;;;;3.00;2.30;;;;;;;;;;5098723;28;20047;-76
2022/12/06 01:02:19;;;;;;;5.00;2.75;;;;;;;;;;5082412;28;20062;-76
2022/12/06 01:04:45;;;;;;;4.07;2.80;;;;;;;;;;5098627;28;20084;-76
2022/12/06 01:07:11;;;;;;;4.60;2.60;;;;;;;;;;5101540;28;20047;-76
2022/12/06 01:09:37;;;;;;;4.72;2.72;;;;;;;;;;5083388;28;20071;-76
2022/12/06 01:12:03;;;;;;;4.28;2.47;;;;;;;;;;5101006;28;20043;-76
2022/12/06 01:14:29;;;;;;;5.70;2.60;;;;;;;;;;5098020;28;21238;-76
2022/12/06 01:16:55;;;;;;;4.32;2.47;;;;;;;;;;5082005;28;20046;-76
2022/12/06 01:19:21;;;;;;;5.30;2.30;;;;;;;;;;5085104;28;20415;-76
2022/12/06 01:21:48;;;;;;;4.85;2.30;;;;;;;;;;5085194;28;20464;-76
2022/12/06 01:24:14;;;;;;;5.93;2.50;;;;;;;;;;5080264;28;20487;-76
2022/12/06 01:26:40;;;;;;;4.07;2.40;;;;;;;;;;5082470;28;20461;-76
2022/12/06 01:29:06;;;;;;;7.22;2.85;;;;;;;;;;5080364;28;20467;-76
2022/12/06 01:31:32;;;;;;;11.57;5.32;;;;;;;;;;5076321;28;20044;-76
2022/12/06 01:33:58;;;;;;;13.48;10.52;;;;;;;;;;5089439;28;20086;-76
2022/12/06 01:36:25;;;;;;;13.82;11.73;;;;;;;;;;5085893;28;20055;-76
2022/12/06 01:38:52;;;;;;;19.65;14.68;;;;;;;;;;5086773;28;20483;-76
2022/12/06 01:41:19;;;;;;;17.40;11.77;;;;;;;;;;5089077;28;20044;-76
2022/12/06 01:43:46;;;;;;;15.60;10.05;;;;;;;;;;5091188;28;20059;-76
2022/12/06 01:46:15;;;;;;;15.80;9.43;;;;;;;;;;5088391;28;20130;-76
2022/12/06 01:48:41;;;;;;;16.08;10.93;;;;;;;;;;5082417;28;20071;-76
2022/12/06 01:51:09;;;;;;;11.68;5.00;;;;;;;;;;5082800;28;20403;-76
2022/12/06 01:53:35;;;;;;;14.05;6.28;;;;;;;;;;5088808;28;20048;-77
2022/12/06 01:56:01;;;;;;;11.25;5.15;;;;;;;;;;5106748;28;20056;-76
2022/12/06 01:58:31;;;;;;;10.45;4.38;;;;;;;;;;5087837;28;20039;-75
2022/12/06 02:00:57;;;;;;;6.35;2.72;;;;;;;;;;5085360;28;20093;-76
2022/12/06 02:03:26;;;;;;;3.97;2.70;;;;;;;;;;5103493;28;20124;-76
2022/12/06 02:05:53;;;;;;;5.03;2.33;;;;;;;;;;5083467;28;20105;-76
2022/12/06 02:08:19;;;;;;;3.95;2.25;;;;;;;;;;5082975;28;20071;-76
2022/12/06 02:10:45;;;;;;;2.30;2.10;;;;;;;;;;5104232;28;20043;-76
2022/12/06 02:13:12;;;;;;;2.50;2.30;;;;;;;;;;5084380;28;20043;-76
2022/12/06 02:15:46;;;;;;;2.97;2.42;;;;;;;;;;5102194;28;20501;-76
2022/12/06 02:18:32;;;;;;;2.60;2.03;;;;;;;;;;5102297;28;20063;-76
2022/12/06 02:21:13;;;;;;;2.53;1.90;;;;;;;;;;5036861;28;20094;-76
2022/12/06 02:23:45;;;;;;;3.10;1.85;;;;;;;;;;5106017;28;20036;-76
2022/12/06 02:26:11;;;;;;;3.58;1.80;;;;;;;;;;5080050;28;20060;-76
2022/12/06 02:29:04;;;;;;;1.70;1.60;;;;;;;;;;5100733;28;20069;-76
2022/12/06 02:31:36;;;;;;;2.60;1.88;;;;;;;;;;5081780;28;20044;-76
2022/12/06 02:34:07;;;;;;;3.85;1.80;;;;;;;;;;5099141;28;20047;-76
2022/12/06 02:36:36;;;;;;;3.40;2.00;;;;;;;;;;5101549;28;20565;-76
2022/12/06 02:39:09;;;;;;;2.13;1.95;;;;;;;;;;5079599;28;20047;-76
2022/12/06 02:41:37;;;;;;;3.10;2.40;;;;;;;;;;5082668;28;20491;-76
2022/12/06 02:44:08;;;;;;;3.45;2.13;;;;;;;;;;5101873;28;20063;-76
2022/12/06 02:46:36;;;;;;;4.32;2.20;;;;;;;;;;5084967;28;20485;-76
2022/12/06 02:49:03;;;;;;;2.30;2.10;;;;;;;;;;5107677;28;20391;-76
2022/12/06 02:51:31;;;;;;;4.47;2.30;;;;;;;;;;5080534;27;20121;-76
2022/12/06 02:53:59;;;;;;;4.63;2.50;;;;;;;;;;5083427;28;20047;-75
2022/12/06 02:56:25;;;;;;;4.07;2.08;;;;;;;;;;5097347;28;21165;-76
2022/12/06 02:58:52;;;;;;;3.30;1.98;;;;;;;;;;5080707;28;20051;-76
2022/12/06 03:01:21;;;;;;;4.50;2.33;;;;;;;;;;5103053;28;20119;-76
2022/12/06 03:04:06;;;;;;;4.80;1.88;;;;;;;;;;5103621;28;20376;-76
2022/12/06 03:06:58;;;;;;;2.15;1.80;;;;;;;;;;5101345;28;20055;-76
2022/12/06 03:09:53;;;;;;;3.00;1.80;;;;;;;;;;5088552;28;20130;-76
2022/12/06 03:12:32;;;;;;;3.08;2.00;;;;;;;;;;5066854;28;20169;-77
2022/12/06 03:15:21;;;;;;;3.10;2.05;;;;;;;;;;5083682;28;20122;-76
2022/12/06 03:17:50;;;;;;;2.55;2.25;;;;;;;;;;5088035;28;20461;-77
2022/12/06 03:20:28;;;;;;;5.32;2.20;;;;;;;;;;5101031;28;20082;-77
2022/12/06 03:23:17;;;;;;;4.13;2.00;;;;;;;;;;5104249;28;20387;-77
2022/12/06 03:25:44;;;;;;;6.00;2.22;;;;;;;;;;5089269;28;20043;-77
2022/12/06 03:28:11;;;;;;;3.65;2.08;;;;;;;;;;5103000;28;21647;-77
2022/12/06 03:30:37;;;;;;;5.22;2.70;;;;;;;;;;5081947;28;20491;-77
2022/12/06 03:33:03;;;;;;;3.85;2.00;;;;;;;;;;5098340;27;20063;-77
2022/12/06 03:35:31;;;;;;;2.75;2.30;;;;;;;;;;5103489;28;20071;-76
2022/12/06 03:38:01;;;;;;;7.85;3.10;;;;;;;;;;5088768;28;20465;-76
2022/12/06 03:40:29;;;;;;;6.80;2.45;;;;;;;;;;5084438;27;20048;-76
2022/12/06 03:42:55;;;;;;;8.20;2.50;;;;;;;;;;5102522;28;20043;-77
2022/12/06 03:45:28;;;;;;;5.20;2.17;;;;;;;;;;5083891;28;20035;-76
2022/12/06 03:48:11;;;;;;;3.80;2.20;;;;;;;;;;5081165;28;20035;-77
2022/12/06 03:50:49;;;;;;;2.97;2.22;;;;;;;;;;5086289;28;20347;-76
2022/12/06 03:53:16;;;;;;;4.40;2.45;;;;;;;;;;5103978;27;20048;-76
2022/12/06 03:55:43;;;;;;;5.78;2.33;;;;;;;;;;5086554;28;20043;-76
2022/12/06 03:58:09;;;;;;;7.72;2.90;;;;;;;;;;5100808;28;20039;-76
2022/12/06 04:00:35;;;;;;;6.40;3.08;;;;;;;;;;5081910;28;20097;-77
2022/12/06 04:03:01;;;;;;;8.38;3.10;;;;;;;;;;5075988;28;20548;-76
2022/12/06 04:05:27;;;;;;;12.60;3.45;;;;;;;;;;5102572;28;20047;-76
2022/12/06 04:07:53;;;;;;;9.02;2.85;;;;;;;;;;5103560;28;20110;-76
2022/12/06 04:10:19;;;;;;;6.13;2.90;;;;;;;;;;5099076;28;20133;-77
2022/12/06 04:13:00;;;;;;;7.78;3.20;;;;;;;;;;5086441;28;20131;-77
2022/12/06 04:15:32;;;;;;;7.78;3.28;;;;;;;;;;5082695;28;20082;-76
2022/12/06 04:18:12;;;;;;;5.50;3.50;;;;;;;;;;5086089;27;20048;-76
2022/12/06 04:23:40;;;;;;;8.20;3.05;;;;;;;;;;5096667;28;20043;-76
2022/12/06 04:26:07;;;;;;;6.25;3.00;;;;;;;;;;5100344;28;20149;-76
2022/12/06 04:39:32;;;;;;;6.07;3.67;;;;;;;;;;5098751;28;20423;-76
2022/12/06 04:44:43;;;;;;;16.92;3.53;;;;;;;;;;5100227;28;20483;-76
2022/12/06 04:47:09;;;;;;;10.95;3.00;;;;;;;;;;5081841;28;20276;-76
2022/12/06 04:49:36;;;;;;;8.25;3.40;;;;;;;;;;5101983;28;20040;-76
2022/12/06 04:52:03;;;;;;;6.45;3.03;;;;;;;;;;5078991;28;20153;-76
2022/12/06 04:54:29;;;;;;;7.70;3.50;;;;;;;;;;5096577;28;20101;-76
2022/12/06 04:56:56;;;;;;;7.07;2.97;;;;;;;;;;5096292;28;20522;-76
2022/12/06 04:59:22;;;;;;;5.22;2.75;;;;;;;;;;5077570;28;20574;-77
2022/12/06 05:01:48;;;;;;;8.13;3.20;;;;;;;;;;5098242;28;20076;-76
2022/12/06 05:04:14;;;;;;;5.35;2.63;;;;;;;;;;5083333;28;20035;-77
2022/12/06 05:06:40;;;;;;;6.13;2.65;;;;;;;;;;5101089;28;20054;-76
2022/12/06 05:09:06;;;;;;;5.07;2.95;;;;;;;;;;5109626;28;20475;-76
2022/12/06 05:11:32;;;;;;;5.53;2.75;;;;;;;;;;5088934;28;20036;-77
2022/12/06 05:13:59;;;;;;;9.93;3.65;;;;;;;;;;5107611;28;20050;-76
2022/12/06 05:16:26;;;;;;;5.97;3.05;;;;;;;;;;5083612;28;20051;-76
2022/12/06 05:18:52;;;;;;;10.95;3.30;;;;;;;;;;5085413;28;20060;-76
2022/12/06 05:21:20;;;;;;;14.13;3.40;;;;;;;;;;5088458;28;20493;-77
2022/12/06 05:23:46;;;;;;;8.50;3.30;;;;;;;;;;5107395;28;20490;-76
2022/12/06 05:26:17;;;;;;;7.63;2.92;;;;;;;;;;5085273;28;20048;-77
2022/12/06 05:28:44;;;;;;;7.07;3.15;;;;;;;;;;5088713;28;20065;-77
2022/12/06 05:31:10;;;;;;;8.15;3.10;;;;;;;;;;5098488;28;20089;-77
2022/12/06 05:33:37;;;;;;;8.20;3.15;;;;;;;;;;5080876;28;20496;-77
2022/12/06 05:36:07;;;;;;;6.07;2.75;;;;;;;;;;5084992;28;20063;-77
2022/12/06 05:38:33;;;;;;;8.40;3.47;;;;;;;;;;5088124;28;20134;-77
2022/12/06 05:40:59;;;;;;;6.13;2.90;;;;;;;;;;5090449;28;20538;-77
2022/12/06 05:43:25;;;;;;;6.03;2.75;;;;;;;;;;5085595;28;20076;-77
2022/12/06 05:45:54;;;;;;;6.28;2.60;;;;;;;;;;5106838;28;20502;-77
2022/12/06 05:48:21;;;;;;;3.55;2.05;;;;;;;;;;5083821;28;20127;-77
2022/12/06 05:50:47;;;;;;;4.30;2.60;;;;;;;;;;5086918;28;20067;-76
2022/12/06 05:53:13;;;;;;;5.50;2.45;;;;;;;;;;5105260;28;21534;-76
2022/12/06 05:55:39;;;;;;;4.57;2.67;;;;;;;;;;5083401;28;20122;-77
2022/12/06 05:58:05;;;;;;;5.68;2.60;;;;;;;;;;5082437;28;20040;-77
2022/12/06 06:00:31;;;;;;;3.40;2.30;;;;;;;;;;5103854;28;20048;-76
2022/12/06 06:02:57;;;;;;;4.38;2.40;;;;;;;;;;5084885;28;20035;-76
2022/12/06 06:05:23;;;;;;;3.15;2.35;;;;;;;;;;5079007;28;20054;-76
2022/12/06 06:07:49;;;;;;;4.55;2.72;;;;;;;;;;5081403;28;20100;-77
2022/12/06 06:10:16;;;;;;;4.75;2.50;;;;;;;;;;5102652;28;20051;-76
2022/12/06 06:12:43;;;;;;;6.45;2.85;;;;;;;;;;5080712;28;20458;-76
2022/12/06 06:15:10;;;;;;;5.45;2.83;;;;;;;;;;5079824;28;20505;-77
2022/12/06 06:17:36;;;;;;;7.07;3.95;;;;;;;;;;5087284;28;20336;-76
2022/12/06 06:20:06;;;;;;;20.08;9.60;;;;;;;;;;5083969;28;20376;-76
2022/12/06 06:22:33;;;;;;;15.43;7.93;;;;;;;;;;5086481;28;20375;-76
2022/12/06 06:25:00;;;;;;;12.88;6.18;;;;;;;;;;5084977;28;20040;-76
2022/12/06 06:27:26;;;;;;;10.55;5.07;;;;;;;;;;5103731;28;20780;-76
2022/12/06 06:29:52;;;;;;;9.57;4.22;;;;;;;;;;5101034;28;20082;-76
2022/12/06 06:32:18;;;;;;;10.88;4.20;;;;;;;;;;5102837;28;20036;-77
2022/12/06 06:34:44;;;;;;;6.95;3.67;;;;;;;;;;5102553;28;20047;-76
2022/12/06 06:37:11;;;;;;;5.45;3.10;;;;;;;;;;5097654;28;20075;-77
2022/12/06 06:39:37;;;;;;;8.43;3.40;;;;;;;;;;5083443;28;20047;-77
2022/12/06 06:42:03;;;;;;;5.80;2.72;;;;;;;;;;5106974;28;20047;-76
2022/12/06 06:44:29;;;;;;;6.47;2.90;;;;;;;;;;5077607;28;20051;-76
2022/12/06 06:46:55;;;;;;;8.68;3.38;;;;;;;;;;5086731;28;20039;-76
2022/12/06 06:49:21;;;;;;;3.63;2.90;;;;;;;;;;5104518;28;20058;-77
2022/12/06 06:51:50;;;;;;;4.32;2.70;;;;;;;;;;5085507;28;20035;-77
2022/12/06 06:54:17;;;;;;;5.43;2.88;;;;;;;;;;5082853;28;20051;-75
2022/12/06 06:56:43;;;;;;;4.30;2.60;;;;;;;;;;5085191;28;20044;-75
2022/12/06 06:59:09;;;;;;;5.72;2.80;;;;;;;;;;5095867;28;20036;-76
2022/12/06 07:01:35;;;;;;;4.32;2.70;;;;;;;;;;5080253;28;20046;-76
2022/12/06 07:04:01;;;;;;;5.07;2.20;;;;;;;;;;5090252;28;20047;-76
2022/12/06 07:06:27;;;;;;;3.17;2.13;;;;;;;;;;5088116;28;20479;-76
2022/12/06 07:08:53;;;;;;;5.15;2.53;;;;;;;;;;5089819;28;20058;-76
2022/12/06 07:11:19;;;;;;;10.65;2.67;;;;;;;;;;5085306;28;20048;-76
2022/12/06 07:13:45;;;;;;;3.78;2.20;;;;;;;;;;5085777;28;20074;-75
2022/12/06 07:16:15;;;;;;;3.47;2.47;;;;;;;;;;5098708;28;20071;-76
2022/12/06 07:18:42;;;;;;;7.53;2.90;;;;;;;;;;5090854;28;20028;-76
2022/12/06 07:21:09;;;;;;;4.35;2.60;;;;;;;;;;5099149;28;20052;-76
2022/12/06 07:23:36;;;;;;;5.35;2.70;;;;;;;;;;5108500;28;20040;-76
2022/12/06 07:26:03;;;;;;;5.18;3.10;;;;;;;;;;5087694;28;20136;-76
2022/12/06 07:28:29;;;;;;;5.05;3.00;;;;;;;;;;5101856;28;20044;-76
2022/12/06 07:30:55;;;;;;;4.05;3.10;;;;;;;;;;5110454;28;20499;-76
2022/12/06 07:33:21;;;;;;;4.97;2.90;;;;;;;;;;5086803;28;20392;-76
2022/12/06 07:35:52;;;;;;;8.02;3.33;;;;;;;;;;5085090;28;20411;-76
2022/12/06 07:38:18;;;;;;;5.35;3.05;;;;;;;;;;5089176;28;20436;-76
2022/12/06 07:40:44;;;;;;;5.03;2.83;;;;;;;;;;5088534;28;20092;-76
2022/12/06 07:45:55;;;;;;;4.55;3.80;;;;;;;;;;5089035;28;20441;-76
2022/12/06 07:48:21;;;;;;;4.47;3.20;;;;;;;;;;5107277;28;20048;-76
2022/12/06 07:50:47;;;;;;;6.72;3.38;;;;;;;;;;5111810;28;20039;-76
2022/12/06 07:53:13;;;;;;;3.83;2.90;;;;;;;;;;5088305;28;20043;-75
2022/12/06 07:55:39;;;;;;;4.47;2.85;;;;;;;;;;5075356;28;20046;-75
2022/12/06 07:58:05;;;;;;;3.78;2.58;;;;;;;;;;5087984;28;20043;-76
2022/12/06 08:00:31;;;;;;;4.75;2.80;;;;;;;;;;5112129;28;20109;-76
2022/12/06 08:02:57;;;;;;;3.95;2.47;;;;;;;;;;5089067;28;20039;-76
2022/12/06 08:05:23;;;;;;;4.72;2.78;;;;;;;;;;5080652;28;20449;-75
2022/12/06 08:07:49;;;;;;;5.07;3.10;;;;;;;;;;5076408;28;20050;-75
2022/12/06 08:10:15;;;;;;;5.45;3.38;;;;;;;;;;5090026;28;20494;-77
2022/12/06 08:12:41;;;;;;;7.03;3.55;;;;;;;;;;5090253;28;20475;-76
2022/12/06 08:15:11;;;;;;;6.28;3.25;;;;;;;;;;5098568;28;20043;-76
2022/12/06 08:17:38;;;;;;;3.78;3.20;;;;;;;;;;5089663;28;20043;-76
2022/12/06 08:20:06;;;;;;;5.68;3.35;;;;;;;;;;5099919;28;20063;-76
2022/12/06 08:22:32;;;;;;;5.65;3.22;;;;;;;;;;5091721;28;20044;-77
2022/12/06 08:24:59;;;;;;;7.07;3.50;;;;;;;;;;5109699;28;20086;-77
2022/12/06 08:27:25;;;;;;;6.43;3.30;;;;;;;;;;5109798;28;20036;-76
2022/12/06 08:29:51;;;;;;;4.20;2.97;;;;;;;;;;5088483;28;20055;-76
2022/12/06 08:32:17;;;;;;;7.50;3.22;;;;;;;;;;5099127;28;20533;-76
2022/12/06 08:34:43;;;;;;;5.20;3.10;;;;;;;;;;5105486;28;20051;-76
2022/12/06 08:37:09;;;;;;;5.70;3.75;;;;;;;;;;5087232;28;20043;-76
2022/12/06 08:39:35;;;;;;;8.30;3.70;;;;;;;;;;5083216;28;20457;-76
2022/12/06 08:42:02;;;;;;;6.35;3.78;;;;;;;;;;5103902;28;20373;-77
2022/12/06 08:44:29;;;;;;;6.78;4.50;;;;;;;;;;5103602;28;20093;-77
2022/12/06 08:46:59;;;;;;;7.25;4.38;;;;;;;;;;5080462;28;20039;-76
2022/12/06 08:49:26;;;;;;;6.45;4.20;;;;;;;;;;5109937;28;20043;-77
2022/12/06 08:51:52;;;;;;;6.95;5.00;;;;;;;;;;5101871;28;20066;-76
2022/12/06 08:54:20;;;;;;;9.32;5.05;;;;;;;;;;5104671;28;20048;-76
2022/12/06 08:56:46;;;;;;;8.07;4.10;;;;;;;;;;5081313;28;20050;-76
2022/12/06 08:59:13;;;;;;;9.52;4.57;;;;;;;;;;5102692;28;20047;-76
2022/12/06 09:01:39;;;;;;;9.88;4.40;;;;;;;;;;5082559;28;20048;-76
2022/12/06 09:04:06;;;;;;;5.13;3.75;;;;;;;;;;5087271;28;20036;-76
2022/12/06 09:06:32;;;;;;;7.63;3.60;;;;;;;;;;5089278;28;20664;-76
2022/12/06 09:08:58;;;;;;;7.00;3.50;;;;;;;;;;5085827;28;20532;-76
2022/12/06 09:11:25;;;;;;;21.45;19.45;;;;;;;;;;5104321;28;20051;-76
2022/12/06 09:13:51;;;;;;;6.00;3.08;;;;;;;;;;5084382;28;20479;-76
2022/12/06 09:16:19;;;;;;;6.63;2.67;;;;;;;;;;5098831;28;20046;-76
2022/12/06 09:18:45;;;;;;;4.80;2.83;;;;;;;;;;5097014;28;20040;-76
2022/12/06 09:21:16;;;;;;;4.00;2.03;;;;;;;;;;5081266;28;20043;-76
2022/12/06 09:23:42;;;;;;;3.47;2.17;;;;;;;;;;5087160;28;20066;-76
2022/12/06 09:26:08;;;;;;;3.88;2.40;;;;;;;;;;5099163;28;20141;-77
2022/12/06 09:28:35;;;;;;;3.90;2.30;;;;;;;;;;5089833;28;20081;-77
2022/12/06 09:31:02;;;;;;;5.70;1.90;;;;;;;;;;5084811;28;20102;-76
2022/12/06 09:33:28;;;;;;;3.58;2.13;;;;;;;;;;5077455;28;20071;-76
2022/12/06 09:35:54;;;;;;;3.65;2.10;;;;;;;;;;5084740;28;20474;-76
2022/12/06 09:38:21;;;;;;;4.38;2.17;;;;;;;;;;5072810;28;20511;-77
2022/12/06 09:41:02;;;;;;;2.15;1.83;;;;;;;;;;5080378;28;20093;-77
2022/12/06 09:43:37;;;;;;;7.00;2.15;;;;;;;;;;5079630;28;20047;-77
2022/12/06 09:46:26;;;;;;;4.03;2.10;;;;;;;;;;5078073;28;20040;-77
2022/12/06 09:49:05;;;;;;;5.28;1.88;;;;;;;;;;5088022;28;20039;-76
2022/12/06 09:51:44;;;;;;;4.57;2.20;;;;;;;;;;5083479;28;20043;-76
2022/12/06 09:54:13;;;;;;;5.93;2.10;;;;;;;;;;5074659;28;20047;-77
2022/12/06 09:56:47;;;;;;;2.30;1.70;;;;;;;;;;5085100;28;20113;-77
2022/12/06 09:59:13;;;;;;;;;;;;;;;;;;5092438;28;20040;-77
2022/12/06 10:01:39;;;;;;;3.92;1.95;;;;;;;;;;5088709;28;20409;-77
2022/12/06 10:04:14;;;;;;;3.67;2.30;;;;;;;;;;5091528;28;20052;-77
2022/12/06 10:06:45;;;;;;;2.20;1.77;;;;;;;;;;5087417;28;20076;-77
2022/12/06 10:09:19;;;;;;;5.10;2.42;;;;;;;;;;5087760;28;20371;-77
2022/12/06 10:11:54;;;;;;;5.78;2.25;;;;;;;;;;5081754;28;20052;-77
2022/12/06 10:14:39;;;;;;;3.35;1.83;;;;;;;;;;5081483;28;20059;-77
2022/12/06 10:17:23;;;;;;;7.97;2.00;;;;;;;;;;5084848;28;20055;-77
2022/12/06 10:19:58;;;;;;;3.67;2.13;;;;;;;;;;5083055;28;20040;-77
2022/12/06 10:22:43;;;;;;;5.70;1.80;;;;;;;;;;5080352;28;20055;-77
2022/12/06 10:25:21;;;;;;;2.97;2.00;;;;;;;;;;5087931;28;20426;-77
2022/12/06 10:27:59;;;;;;;2.58;1.60;;;;;;;;;;5075437;28;20072;-77
2022/12/06 10:30:25;;;;;;;3.28;1.70;;;;;;;;;;5079971;28;20075;-78
2022/12/06 10:32:54;;;;;;;2.35;1.67;;;;;;;;;;5088289;27;20056;-76
2022/12/06 10:35:32;;;;;;;2.17;1.77;;;;;;;;;;5085422;28;20119;-76
2022/12/06 10:38:12;;;;;;;1.60;1.50;;;;;;;;;;5105695;28;20464;-75
2022/12/06 10:40:56;;;;;;;1.95;1.73;;;;;;;;;;5095271;28;20555;-75
2022/12/06 10:43:31;;;;;;;4.25;2.35;;;;;;;;;;5108823;28;20044;-77
2022/12/06 10:49:08;;;;;;;3.58;1.70;;;;;;;;;;5082805;27;20126;-77
2022/12/06 10:51:39;;;;;;;4.57;1.92;;;;;;;;;;5088002;28;20043;-77
2022/12/06 10:54:25;;;;;;;4.65;1.70;;;;;;;;;;5090234;28;20479;-76
2022/12/06 10:56:53;;;;;;;3.83;1.90;;;;;;;;;;5085351;27;20044;-77
2022/12/06 10:59:29;;;;;;;2.92;2.08;;;;;;;;;;5092831;28;20044;-77
2022/12/06 11:01:59;;;;;;;4.05;1.70;;;;;;;;;;5083111;28;20074;-77
2022/12/06 11:04:28;;;;;;;4.80;2.10;;;;;;;;;;5105562;28;20035;-76
2022/12/06 11:07:05;;;;;;;5.20;1.63;;;;;;;;;;5078142;28;20039;-76
2022/12/06 11:09:31;;;;;;;4.78;1.70;;;;;;;;;;5105732;27;20051;-76
2022/12/06 11:11:57;;;;;;;5.53;1.70;;;;;;;;;;5088537;28;20403;-77
2022/12/06 11:14:37;;;;;;;2.70;1.80;;;;;;;;;;5089906;28;20051;-77
2022/12/06 11:17:18;;;;;;;4.05;1.92;;;;;;;;;;5086465;28;20054;-77
2022/12/06 11:19:52;;;;;;;3.58;1.92;;;;;;;;;;5081195;27;20048;-77
2022/12/06 11:22:36;;;;;;;3.80;1.83;;;;;;;;;;5108531;27;20044;-77
2022/12/06 11:25:01;;;;;;;;;;;;;;;;;;5107083;28;20134;-76
2022/12/06 11:27:42;;;;;;;3.13;1.85;;;;;;;;;;5090597;27;20068;-77
2022/12/06 11:30:14;;;;;;;1.80;1.55;;;;;;;;;;5104917;28;20044;-76
2022/12/06 11:32:40;;;;;;;2.38;1.77;;;;;;;;;;5087774;28;20064;-76
2022/12/06 11:35:14;;;;;;;4.25;1.55;;;;;;;;;;5110144;28;20109;-77
2022/12/06 11:37:41;;;;;;;3.55;1.60;;;;;;;;;;5107829;28;20040;-77
2022/12/06 11:40:26;;;;;;;5.60;2.22;;;;;;;;;;5087174;28;20130;-77
2022/12/06 11:42:52;;;;;;;2.22;1.70;;;;;;;;;;5087429;28;20039;-77
2022/12/06 11:45:25;;;;;;;4.57;1.60;;;;;;;;;;5090761;28;20443;-77
2022/12/06 11:47:55;;;;;;;3.20;1.70;;;;;;;;;;5097593;28;20067;-77
2022/12/06 11:50:22;;;;;;;6.43;1.85;;;;;;;;;;5088222;28;20048;-77
2022/12/06 11:52:57;;;;;;;4.03;1.80;;;;;;;;;;5107773;27;20065;-77
2022/12/06 11:55:31;;;;;;;4.60;2.30;;;;;;;;;;5105049;28;20040;-78
2022/12/06 11:58:00;;;;;;;11.45;4.45;;;;;;;;;;5091454;28;20070;-77
2022/12/06 12:00:27;;;;;;;8.68;3.85;;;;;;;;;;5081905;28;20040;-77
2022/12/06 12:02:54;;;;;;;8.02;3.78;;;;;;;;;;5109405;28;20047;-77
2022/12/06 12:05:24;;;;;;;6.57;2.67;;;;;;;;;;5089222;28;20058;-77
2022/12/06 12:07:55;;;;;;;2.97;1.90;;;;;;;;;;5110770;28;20115;-76
2022/12/06 12:10:21;;;;;;;2.08;1.70;;;;;;;;;;5097748;28;20048;-78
2022/12/06 12:15:33;;;;;;;2.35;1.95;;;;;;;;;;5075051;28;20059;-76
2022/12/06 12:18:00;;;;;;;4.00;1.77;;;;;;;;;;5103361;28;20054;-76
2022/12/06 12:20:27;;;;;;;3.15;1.67;;;;;;;;;;5086766;28;20193;-76
2022/12/06 12:22:59;;;;;;;5.38;1.90;;;;;;;;;;5100054;28;20036;-76
2022/12/06 12:25:27;;;;;;;4.95;1.80;;;;;;;;;;5086556;28;20070;-76
2022/12/06 12:28:03;;;;;;;4.30;2.08;;;;;;;;;;5089196;28;20042;-76
2022/12/06 12:30:37;;;;;;;6.70;1.73;;;;;;;;;;5087269;28;20448;-76
2022/12/06 12:33:06;;;;;;;5.55;2.25;;;;;;;;;;5079843;28;20052;-77
2022/12/06 12:35:39;;;;;;;4.25;2.10;;;;;;;;;;5082864;28;20108;-77
2022/12/06 12:38:09;;;;;;;6.32;2.20;;;;;;;;;;5089671;28;20083;-76
2022/12/06 12:40:36;;;;;;;4.72;2.00;;;;;;;;;;5104449;28;20182;-76
2022/12/06 12:43:04;;;;;;;6.35;2.20;;;;;;;;;;5105808;28;20039;-76
2022/12/06 12:45:30;;;;;;;6.22;2.00;;;;;;;;;;5104336;28;20139;-76
2022/12/06 12:48:00;;;;;;;4.60;1.80;;;;;;;;;;5103219;28;20041;-76
2022/12/06 12:50:27;;;;;;;4.32;1.80;;;;;;;;;;5105475;28;20406;-77
2022/12/06 12:52:54;;;;;;;3.97;1.70;;;;;;;;;;5108056;28;20074;-76
2022/12/06 12:55:28;;;;;;;2.80;2.00;;;;;;;;;;5082793;28;20398;-76
2022/12/06 12:57:55;;;;;;;3.72;1.70;;;;;;;;;;5103480;28;20043;-76
2022/12/06 13:00:21;;;;;;;5.03;2.05;;;;;;;;;;5104104;28;20494;-76
2022/12/06 13:02:49;;;;;;;4.40;1.60;;;;;;;;;;5086587;28;20487;-76
2022/12/06 13:05:15;;;;;;;7.55;1.85;;;;;;;;;;5106436;28;20075;-76
2022/12/06 13:07:42;;;;;;;4.47;1.90;;;;;;;;;;5088934;28;20088;-76
2022/12/06 13:10:08;;;;;;;10.05;4.43;;;;;;;;;;5106483;28;20043;-76
2022/12/06 13:12:46;;;;;;;8.48;3.40;;;;;;;;;;5083535;28;20036;-76
2022/12/06 13:15:24;;;;;;;4.88;3.15;;;;;;;;;;5082219;28;20056;-76
2022/12/06 13:17:54;;;;;;;1.92;1.70;;;;;;;;;;5080153;28;20101;-76
2022/12/06 13:20:27;;;;;;;7.18;2.33;;;;;;;;;;5105235;28;20483;-76
2022/12/06 13:22:53;;;;;;;;;;;;;;;;;;5084879;28;20197;-76
2022/12/06 13:25:19;;;;;;;5.43;1.90;;;;;;;;;;5098177;28;20010;-76
2022/12/06 13:27:47;;;;;;;4.47;1.70;;;;;;;;;;5109393;28;20119;-76
2022/12/06 13:30:18;;;;;;;4.70;1.80;;;;;;;;;;5092935;28;20120;-76
2022/12/06 13:32:50;;;;;;;5.55;1.60;;;;;;;;;;5086496;28;20044;-76
2022/12/06 13:35:20;;;;;;;2.70;1.35;;;;;;;;;;5107899;28;20051;-76
2022/12/06 13:37:51;;;;;;;2.90;1.33;;;;;;;;;;5105189;28;20035;-76
2022/12/06 13:40:33;;;;;;;4.80;1.63;;;;;;;;;;5091213;28;20051;-77
2022/12/06 13:43:00;;;;;;;5.05;1.50;;;;;;;;;;5100989;28;20039;-77
2022/12/06 13:45:47;;;;;;;4.28;1.50;;;;;;;;;;5090316;28;21359;-77
2022/12/06 13:48:28;;;;;;;5.22;1.67;;;;;;;;;;5087037;28;20055;-76
2022/12/06 13:50:58;;;;;;;4.90;1.80;;;;;;;;;;5093224;28;20047;-79
2022/12/06 13:53:32;;;;;;;3.22;1.55;;;;;;;;;;5090316;28;20047;-76
2022/12/06 13:56:00;;;;;;;4.60;1.88;;;;;;;;;;5111617;28;20092;-76
2022/12/06 13:58:26;;;;;;;3.22;1.50;;;;;;;;;;5104021;28;20047;-76
2022/12/06 14:00:56;;;;;;;5.88;2.28;;;;;;;;;;5086384;28;20051;-76
2022/12/06 14:03:22;;;;;;;4.95;1.60;;;;;;;;;;5089257;28;20100;-76
2022/12/06 14:06:07;;;;;;;2.00;1.60;;;;;;;;;;5093547;28;20047;-76
2022/12/06 14:08:44;;;;;;;4.07;1.63;;;;;;;;;;5092620;28;20089;-76
2022/12/06 14:11:13;;;;;;;4.97;1.70;;;;;;;;;;5088894;28;20040;-76
2022/12/06 14:13:40;;;;;;;5.53;1.60;;;;;;;;;;5100010;28;20043;-76
2022/12/06 14:16:07;;;;;;;4.95;1.58;;;;;;;;;;5088174;28;20054;-76
2022/12/06 14:18:33;;;;;;;8.20;1.85;;;;;;;;;;5087286;28;20117;-76
2022/12/06 14:21:01;;;;;;;5.35;1.70;;;;;;;;;;5089002;28;20039;-76
2022/12/06 14:23:30;;;;;;;14.25;6.43;;;;;;;;;;5101123;28;20055;-76
2022/12/06 14:26:17;;;;;;;7.13;3.05;;;;;;;;;;5104536;28;20043;-76
2022/12/06 14:28:44;;;;;;;13.73;5.80;;;;;;;;;;5090176;28;20046;-76
2022/12/06 14:31:45;;;;;;;6.43;2.80;;;;;;;;;;5088251;28;20044;-76
2022/12/06 14:34:25;;;;;;;4.95;1.80;;;;;;;;;;5063692;28;20921;-76
2022/12/06 14:36:52;;;;;;;2.38;1.70;;;;;;;;;;5083979;28;20052;-76
2022/12/06 14:39:20;;;;;;;5.88;1.80;;;;;;;;;;5089454;28;20039;-77
2022/12/06 14:44:35;;;;;;;2.25;1.60;;;;;;;;;;5090459;28;20039;-76
2022/12/06 14:47:01;;;;;;;5.38;1.60;;;;;;;;;;5091797;28;20078;-77
2022/12/06 14:52:17;;;;;;;6.93;1.88;;;;;;;;;;5090062;28;20044;-76
2022/12/06 14:54:44;;;;;;;3.45;1.58;;;;;;;;;;5106708;28;20043;-76
2022/12/06 14:57:23;;;;;;;6.35;1.90;;;;;;;;;;5087528;28;20047;-76
2022/12/06 14:59:57;;;;;;;5.72;2.50;;;;;;;;;;5084711;28;20040;-76
2022/12/06 15:02:24;;;;;;;6.15;2.10;;;;;;;;;;5086890;27;20051;-76
2022/12/06 15:04:50;;;;;;;6.88;2.10;;;;;;;;;;5081354;28;20060;-76
2022/12/06 15:07:35;;;;;;;3.00;1.83;;;;;;;;;;5086644;28;20051;-75
2022/12/06 15:10:18;;;;;;;4.22;2.60;;;;;;;;;;5104377;28;20035;-75
2022/12/06 15:12:56;;;;;;;6.78;1.88;;;;;;;;;;5103828;28;20415;-77
2022/12/06 15:15:31;;;;;;;5.32;1.90;;;;;;;;;;5089234;28;20124;-76
2022/12/06 15:18:15;;;;;;;5.63;2.30;;;;;;;;;;5102689;28;20036;-75
2022/12/06 15:20:44;;;;;;;3.63;2.17;;;;;;;;;;5083347;28;20043;-76
2022/12/06 15:23:30;;;;;;;5.57;1.98;;;;;;;;;;5090029;28;20043;-76
2022/12/06 15:25:56;;;;;;;8.07;2.13;;;;;;;;;;5083835;28;20040;-76
2022/12/06 15:28:22;;;;;;;4.35;1.90;;;;;;;;;;5077540;28;20074;-76